Time;durP1;ratioP1;P1;durP2;ratioP2;P2;SDS_P1;SDS_P2;PMS_P1;PMS_P2;Temp;Humidity;BMP_temperature;BMP_pressure;BME280_temperature;BME280_humidity;BME280_pressure;Samples;Min_cycle;Max_cycle;Signal;HPM_P1;HPM_P2
2022/08/18 00:01:14;;;;;;;32.33;21.60;;;20.10;99.90;;;;;;4930603;29;20203;-81
2022/08/18 00:03:44;;;;;;;31.33;20.13;;;20.10;99.90;;;;;;4945085;28;20338;-81
2022/08/18 00:06:26;;;;;;;29.60;22.02;;;20.10;99.90;;;;;;4996344;28;20564;-81
2022/08/18 00:08:55;;;;;;;27.98;20.83;;;20.10;99.90;;;;;;4978089;28;20219;-83
2022/08/18 00:11:23;;;;;;;30.30;20.98;;;20.10;99.90;;;;;;4994877;28;20750;-83
2022/08/18 00:13:50;;;;;;;31.05;22.33;;;20.10;99.90;;;;;;4963572;28;20216;-82
2022/08/18 00:16:17;;;;;;;30.88;22.05;;;20.10;99.90;;;;;;4977043;28;20263;-80
2022/08/18 00:18:44;;;;;;;30.83;20.13;;;20.10;99.90;;;;;;4974352;28;20238;-81
2022/08/18 00:21:13;;;;;;;32.78;22.08;;;20.10;99.90;;;;;;4960832;28;20217;-83
2022/08/18 00:23:47;;;;;;;35.65;23.38;;;20.10;99.90;;;;;;4988533;28;20234;-81
2022/08/18 00:26:14;;;;;;;30.85;21.48;;;20.10;99.90;;;;;;4983934;28;20207;-82
2022/08/18 00:28:42;;;;;;;33.30;21.55;;;20.10;99.90;;;;;;4963360;28;20230;-80
2022/08/18 00:31:09;;;;;;;32.72;21.42;;;20.10;99.90;;;;;;4958179;28;20231;-82
2022/08/18 00:33:42;;;;;;;34.53;22.25;;;20.10;99.90;;;;;;4960031;28;20207;-82
2022/08/18 00:36:13;;;;;;;34.03;22.50;;;20.10;99.90;;;;;;4969056;28;20230;-83
2022/08/18 00:38:46;;;;;;;30.67;19.63;;;20.10;99.90;;;;;;4961093;28;20237;-80
2022/08/18 00:41:13;;;;;;;36.03;23.15;;;20.10;99.90;;;;;;4966452;28;20212;-81
2022/08/18 00:44:21;;;;;;;34.40;23.23;;;20.10;99.90;;;;;;4970168;28;20223;-80
2022/08/18 00:46:50;;;;;;;34.53;21.63;;;20.10;99.90;;;;;;4957634;28;20576;-82
2022/08/18 00:49:17;;;;;;;30.38;21.42;;;20.10;99.90;;;;;;4974478;28;20219;-82
2022/08/18 00:51:48;;;;;;;37.20;22.33;;;20.10;99.90;;;;;;4974217;28;20251;-80
2022/08/18 00:54:29;;;;;;;32.20;21.08;;;20.10;99.90;;;;;;4974598;28;20246;-81
2022/08/18 00:56:59;;;;;;;35.72;21.13;;;20.10;99.90;;;;;;4975616;28;20211;-81
2022/08/18 00:59:40;;;;;;;33.28;22.90;;;20.10;99.90;;;;;;4980918;28;20244;-81
2022/08/18 01:02:13;;;;;;;31.20;20.75;;;20.10;99.90;;;;;;4974501;28;20223;-81
2022/08/18 01:04:56;;;;;;;37.33;20.33;;;20.00;99.90;;;;;;4975233;28;20216;-82
2022/08/18 01:07:31;;;;;;;28.77;19.50;;;20.10;99.90;;;;;;4974229;28;20222;-79
2022/08/18 01:09:58;;;;;;;36.40;21.77;;;20.00;99.90;;;;;;4974640;28;20215;-82
2022/08/18 01:12:26;;;;;;;36.38;22.83;;;20.00;99.90;;;;;;4984002;28;20211;-81
2022/08/18 01:15:14;;;;;;;33.38;23.05;;;20.00;99.90;;;;;;4968085;28;20285;-82
2022/08/18 01:23:48;;;;;;;30.35;20.08;;;20.10;99.90;;;;;;4940916;28;20220;-81
2022/08/18 01:26:16;;;;;;;31.58;19.90;;;20.10;99.90;;;;;;4972068;28;20220;-81
2022/08/18 01:28:45;;;;;;;36.75;22.52;;;20.10;99.90;;;;;;4973502;28;20208;-80
2022/08/18 01:31:29;;;;;;;34.72;22.50;;;20.10;99.90;;;;;;4974499;28;20229;-82
2022/08/18 01:33:57;;;;;;;35.15;20.60;;;20.10;99.90;;;;;;4975540;28;20224;-80
2022/08/18 01:36:24;;;;;;;35.75;21.70;;;20.20;99.90;;;;;;4978799;28;20235;-82
2022/08/18 01:38:52;;;;;;;34.05;20.27;;;20.10;99.90;;;;;;4975440;28;20255;-81
2022/08/18 01:41:21;;;;;;;31.15;19.48;;;20.20;99.90;;;;;;4973436;28;20208;-80
2022/08/18 01:43:57;;;;;;;25.55;18.13;;;20.20;99.90;;;;;;4979034;28;20238;-81
2022/08/18 01:46:30;;;;;;;30.00;19.08;;;20.10;99.90;;;;;;4979368;28;20574;-81
2022/08/18 01:48:59;;;;;;;30.23;20.10;;;20.10;99.90;;;;;;4974459;28;20234;-82
2022/08/18 01:51:28;;;;;;;30.50;19.88;;;20.10;99.90;;;;;;4970490;28;20208;-82
2022/08/18 01:54:11;;;;;;;29.75;19.23;;;20.10;99.90;;;;;;4981405;28;20298;-81
2022/08/18 01:56:39;;;;;;;33.95;20.55;;;20.10;99.90;;;;;;4980522;28;20204;-81
2022/08/18 01:59:12;;;;;;;32.30;20.25;;;20.10;99.90;;;;;;4972879;28;20242;-81
2022/08/18 02:01:42;;;;;;;32.42;20.52;;;20.10;99.90;;;;;;4971573;28;20208;-83
2022/08/18 02:04:22;;;;;;;32.88;18.80;;;20.10;99.90;;;;;;4972212;28;20218;-81
2022/08/18 02:07:03;;;;;;;27.35;18.65;;;20.10;99.90;;;;;;4981191;28;20215;-81
2022/08/18 02:09:31;;;;;;;31.33;18.98;;;20.10;99.90;;;;;;4975640;28;20216;-81
2022/08/18 02:12:00;;;;;;;36.03;20.60;;;20.10;99.90;;;;;;4973635;28;20251;-81
2022/08/18 02:15:03;;;;;;;30.23;19.90;;;20.10;99.90;;;;;;4983272;28;20260;-81
2022/08/18 02:17:43;;;;;;;30.77;20.17;;;20.10;99.90;;;;;;4871274;29;20286;-81
2022/08/18 02:20:17;;;;;;;30.95;20.35;;;20.10;99.90;;;;;;4945868;28;20222;-83
2022/08/18 02:22:46;;;;;;;35.25;21.50;;;20.10;99.90;;;;;;4978394;28;20203;-81
2022/08/18 02:25:27;;;;;;;31.20;20.30;;;20.10;99.90;;;;;;4974362;28;20211;-82
2022/08/18 02:28:40;;;;;;;30.77;18.52;;;20.10;99.90;;;;;;4955156;28;20239;-81
2022/08/18 02:31:11;;;;;;;26.63;18.27;;;20.10;99.90;;;;;;4959773;28;20211;-81
2022/08/18 02:33:52;;;;;;;35.83;21.42;;;20.10;99.90;;;;;;4964152;28;20211;-80
2022/08/18 02:36:20;;;;;;;30.42;19.45;;;20.20;99.90;;;;;;4959393;28;20199;-82
2022/08/18 02:38:51;;;;;;;29.50;19.27;;;20.20;99.90;;;;;;4983149;28;20224;-83
2022/08/18 02:41:27;;;;;;;28.92;20.08;;;20.30;99.90;;;;;;4984821;28;20730;-81
2022/08/18 02:44:01;;;;;;;26.40;17.42;;;20.30;99.90;;;;;;4979143;28;20607;-83
2022/08/18 02:46:28;;;;;;;28.60;19.63;;;20.20;99.90;;;;;;4991665;28;20255;-81
2022/08/18 02:49:00;;;;;;;25.92;17.88;;;20.30;99.90;;;;;;4972311;28;20216;-82
2022/08/18 02:51:27;;;;;;;31.17;20.17;;;20.30;99.90;;;;;;4980207;28;20253;-83
2022/08/18 02:53:57;;;;;;;31.75;19.10;;;20.30;99.90;;;;;;4955351;28;20207;-82
2022/08/18 02:56:27;;;;;;;33.20;20.10;;;20.30;99.90;;;;;;4968119;28;20207;-81
2022/08/18 02:59:10;;;;;;;27.23;20.27;;;20.30;99.90;;;;;;4972537;28;20232;-81
2022/08/18 03:01:41;;;;;;;31.63;19.60;;;20.30;99.90;;;;;;4971776;28;20684;-82
2022/08/18 03:04:10;;;;;;;30.02;18.33;;;20.20;99.90;;;;;;4984988;28;20215;-82
2022/08/18 03:06:38;;;;;;;34.95;19.92;;;20.20;99.90;;;;;;4974083;28;20243;-82
2022/08/18 03:09:07;;;;;;;27.85;18.02;;;20.20;99.90;;;;;;4973466;28;20230;-82
2022/08/18 03:11:35;;;;;;;26.65;18.30;;;20.20;99.90;;;;;;4979176;28;20199;-81
2022/08/18 03:14:04;;;;;;;29.15;18.95;;;20.20;99.90;;;;;;4978885;28;20410;-82
2022/08/18 03:16:31;;;;;;;29.05;17.77;;;20.20;99.90;;;;;;4972540;28;20222;-83
2022/08/18 03:19:00;;;;;;;30.92;19.92;;;20.20;99.90;;;;;;4975108;28;20541;-82
2022/08/18 03:21:30;;;;;;;31.95;21.25;;;20.20;99.90;;;;;;4955791;28;20219;-82
2022/08/18 03:23:57;;;;;;;25.88;17.38;;;20.20;99.90;;;;;;4987068;28;20652;-82
2022/08/18 03:26:30;;;;;;;29.67;20.73;;;20.20;99.90;;;;;;4967151;28;20608;-82
2022/08/18 03:28:58;;;;;;;31.15;20.25;;;20.20;99.90;;;;;;4973140;28;20216;-81
2022/08/18 03:31:28;;;;;;;28.35;19.00;;;20.20;99.90;;;;;;4965883;28;20628;-82
2022/08/18 03:33:57;;;;;;;30.90;20.65;;;20.30;99.90;;;;;;4981151;28;20340;-82
2022/08/18 03:36:30;;;;;;;28.85;19.00;;;20.20;99.90;;;;;;4967618;28;20192;-82
2022/08/18 03:39:00;;;;;;;26.33;18.55;;;20.20;99.90;;;;;;4957686;28;20603;-83
2022/08/18 03:41:28;;;;;;;28.15;19.10;;;20.20;99.90;;;;;;4963595;28;20212;-83
2022/08/18 03:44:16;;;;;;;31.00;19.23;;;20.20;99.90;;;;;;4958242;28;20283;-82
2022/08/18 03:46:43;;;;;;;29.13;20.27;;;20.20;99.90;;;;;;4972828;28;20212;-82
2022/08/18 03:49:11;;;;;;;30.05;20.23;;;20.20;99.90;;;;;;4978300;28;20200;-81
2022/08/18 03:51:47;;;;;;;31.45;20.55;;;20.30;99.90;;;;;;4956797;28;20274;-81
2022/08/18 03:54:17;;;;;;;33.05;19.67;;;20.20;99.90;;;;;;4955301;28;20204;-82
2022/08/18 03:56:45;;;;;;;28.88;18.48;;;20.20;99.90;;;;;;4977795;28;20231;-82
2022/08/18 03:59:20;;;;;;;29.92;19.20;;;20.20;99.90;;;;;;4979175;28;20288;-82
2022/08/18 04:01:49;;;;;;;31.25;19.38;;;20.20;99.90;;;;;;4973518;28;20203;-83
2022/08/18 04:04:19;;;;;;;25.65;18.45;;;20.20;99.90;;;;;;4956914;28;20208;-83
2022/08/18 04:06:54;;;;;;;31.92;20.50;;;20.20;99.90;;;;;;4957064;28;20219;-82
2022/08/18 04:09:23;;;;;;;34.47;19.98;;;20.20;99.90;;;;;;4955595;28;20222;-81
2022/08/18 04:11:50;;;;;;;32.95;20.05;;;20.20;99.90;;;;;;4962726;28;20657;-81
2022/08/18 04:14:20;;;;;;;25.08;17.13;;;20.20;99.90;;;;;;4974042;28;20218;-82
2022/08/18 04:16:47;;;;;;;31.02;18.92;;;20.30;99.90;;;;;;4975423;28;20212;-82
2022/08/18 04:19:16;;;;;;;28.13;17.98;;;20.20;99.90;;;;;;4959073;28;20236;-81
2022/08/18 04:21:55;;;;;;;31.50;19.13;;;20.30;99.90;;;;;;4960287;28;20243;-82
2022/08/18 04:24:24;;;;;;;34.38;20.55;;;20.20;99.90;;;;;;4975330;28;20289;-82
2022/08/18 04:26:56;;;;;;;25.52;17.77;;;20.20;99.90;;;;;;4966580;28;20212;-82
2022/08/18 04:29:23;;;;;;;29.15;20.35;;;20.30;99.90;;;;;;4988740;28;20291;-83
2022/08/18 04:31:51;;;;;;;30.77;19.88;;;20.20;99.90;;;;;;4988307;28;20204;-83
2022/08/18 04:34:21;;;;;;;28.00;18.38;;;20.30;99.90;;;;;;4967403;28;20216;-82
2022/08/18 04:36:52;;;;;;;28.83;20.75;;;20.30;99.90;;;;;;4982615;28;20226;-81
2022/08/18 04:39:21;;;;;;;31.50;19.10;;;20.30;99.90;;;;;;4959441;28;20231;-83
2022/08/18 04:41:48;;;;;;;29.38;19.42;;;20.30;99.90;;;;;;4977021;28;20226;-83
2022/08/18 04:44:16;;;;;;;29.58;19.85;;;20.30;99.90;;;;;;4978454;28;20219;-81
2022/08/18 04:46:50;;;;;;;26.90;19.65;;;20.30;99.90;;;;;;4978737;28;20578;-82
2022/08/18 04:49:24;;;;;;;30.67;19.77;;;20.30;99.90;;;;;;4979245;28;20344;-82
2022/08/18 04:55:00;;;;;;;28.95;18.70;;;20.30;99.90;;;;;;4977809;28;20218;-82
2022/08/18 04:57:34;;;;;;;34.38;18.80;;;20.30;99.90;;;;;;4986555;28;20235;-83
2022/08/18 05:00:05;;;;;;;30.48;20.25;;;20.30;99.90;;;;;;4972809;28;20260;-83
2022/08/18 05:02:38;;;;;;;38.47;21.33;;;20.30;99.90;;;;;;4974125;28;20257;-84
2022/08/18 05:05:09;;;;;;;35.08;20.25;;;20.40;99.90;;;;;;4964593;28;20231;-84
2022/08/18 05:07:43;;;;;;;26.88;18.13;;;20.30;99.90;;;;;;4961902;28;20591;-83
2022/08/18 05:10:12;;;;;;;26.38;18.27;;;20.30;99.90;;;;;;4966726;28;20211;-83
2022/08/18 05:12:44;;;;;;;29.90;16.98;;;20.20;99.90;;;;;;4967804;28;20219;-84
2022/08/18 05:15:11;;;;;;;30.70;18.90;;;20.20;99.90;;;;;;4968137;28;20294;-84
2022/08/18 05:17:38;;;;;;;27.10;18.80;;;20.30;99.90;;;;;;4977748;28;20606;-83
2022/08/18 05:20:07;;;;;;;31.27;19.27;;;20.30;99.90;;;;;;5008514;28;20231;-83
2022/08/18 05:22:42;;;;;;;31.50;20.38;;;20.30;99.90;;;;;;4990637;28;20653;-83
2022/08/18 05:25:11;;;;;;;29.15;20.55;;;20.20;99.90;;;;;;4982892;28;20642;-81
2022/08/18 05:27:42;;;;;;;31.67;18.30;;;20.20;99.90;;;;;;4982032;28;20210;-82
2022/08/18 05:30:10;;;;;;;28.27;19.52;;;20.20;99.90;;;;;;4986238;28;20235;-79
2022/08/18 05:32:43;;;;;;;33.67;20.15;;;20.20;99.90;;;;;;4976426;28;20215;-81
2022/08/18 05:35:24;;;;;;;28.90;17.70;;;20.20;99.90;;;;;;4984309;28;20249;-82
2022/08/18 05:38:14;;;;;;;32.58;19.05;;;20.20;99.90;;;;;;4983794;28;20230;-82
2022/08/18 05:40:44;;;;;;;28.77;18.90;;;20.20;99.90;;;;;;4999086;28;20693;-83
2022/08/18 05:43:14;;;;;;;28.15;18.25;;;20.20;99.90;;;;;;4985786;28;20297;-83
2022/08/18 05:45:41;;;;;;;28.80;18.60;;;20.30;99.90;;;;;;4985479;28;20571;-82
2022/08/18 05:48:08;;;;;;;26.15;17.30;;;20.30;99.90;;;;;;4975706;28;20227;-83
2022/08/18 05:50:36;;;;;;;23.83;15.88;;;20.30;99.90;;;;;;4983977;28;20210;-82
2022/08/18 05:53:12;;;;;;;25.88;16.20;;;20.30;99.90;;;;;;4991744;28;20215;-81
2022/08/18 05:58:44;;;;;;;23.40;15.90;;;20.40;99.90;;;;;;4993235;28;20242;-81
2022/08/18 06:01:19;;;;;;;24.33;16.23;;;20.50;99.90;;;;;;4992621;28;20550;-81
2022/08/18 06:03:53;;;;;;;25.35;15.00;;;20.50;99.90;;;;;;4983583;28;20206;-81
2022/08/18 06:06:28;;;;;;;23.90;14.75;;;20.60;99.90;;;;;;4989635;28;20616;-81
2022/08/18 06:09:11;;;;;;;25.50;15.82;;;20.60;99.90;;;;;;4978354;28;20203;-82
2022/08/18 06:11:38;;;;;;;22.00;14.48;;;20.70;99.90;;;;;;4980700;28;20214;-80
2022/08/18 06:14:05;;;;;;;17.23;12.73;;;20.70;99.90;;;;;;4988391;28;20229;-80
2022/08/18 06:16:52;;;;;;;20.95;14.30;;;20.80;99.90;;;;;;4979609;28;20343;-80
2022/08/18 06:19:43;;;;;;;23.52;13.95;;;20.80;99.90;;;;;;4988592;28;20234;-80
2022/08/18 06:22:19;;;;;;;17.67;12.45;;;20.80;99.90;;;;;;4981332;28;20211;-80
2022/08/18 06:25:00;;;;;;;17.95;12.63;;;20.90;99.90;;;;;;4981662;28;20583;-79
2022/08/18 06:27:57;;;;;;;19.38;12.63;;;21.00;99.90;;;;;;4980150;28;20688;-80
2022/08/18 06:30:31;;;;;;;20.70;12.45;;;21.00;99.90;;;;;;4934422;28;20716;-80
2022/08/18 06:33:08;;;;;;;14.23;11.48;;;21.10;99.90;;;;;;4955856;28;20215;-79
2022/08/18 06:35:38;;;;;;;14.95;12.02;;;21.30;99.90;;;;;;4985019;28;20852;-80
2022/08/18 06:41:14;;;;;;;14.70;9.48;;;22.00;99.90;;;;;;4979133;28;20791;-78
2022/08/18 06:44:15;;;;;;;20.17;11.75;;;22.20;99.90;;;;;;4973095;28;20203;-80
2022/08/18 06:47:03;;;;;;;18.92;11.73;;;22.30;99.90;;;;;;4963649;28;20199;-80
2022/08/18 06:49:45;;;;;;;19.27;12.02;;;22.30;99.90;;;;;;4978844;28;20211;-79
2022/08/18 06:52:33;;;;;;;16.83;11.27;;;22.40;99.90;;;;;;4971234;28;20211;-80
2022/08/18 06:55:08;;;;;;;14.25;10.90;;;22.50;99.90;;;;;;4976655;28;20232;-80
2022/08/18 06:57:37;;;;;;;14.60;10.50;;;22.50;99.90;;;;;;4977733;28;20219;-79
2022/08/18 07:00:16;;;;;;;15.43;10.32;;;22.40;99.90;;;;;;4972554;28;20246;-81
2022/08/18 07:03:21;;;;;;;14.18;10.73;;;22.40;99.90;;;;;;4975526;28;20755;-79
2022/08/18 07:06:03;;;;;;;12.68;9.57;;;22.40;99.90;;;;;;4979984;28;20214;-77
2022/08/18 07:08:40;;;;;;;14.82;10.88;;;22.30;99.90;;;;;;4987656;28;20206;-80
2022/08/18 07:11:19;;;;;;;14.05;10.65;;;22.30;99.90;;;;;;4989747;28;20676;-80
2022/08/18 07:13:50;;;;;;;12.60;10.15;;;22.40;99.90;;;;;;4969462;28;20219;-81
2022/08/18 07:19:32;;;;;;;15.32;9.82;;;22.80;99.90;;;;;;4964845;28;20231;-77
2022/08/18 07:22:11;;;;;;;13.35;10.57;;;23.00;99.90;;;;;;4948533;28;20207;-78
2022/08/18 07:24:45;;;;;;;15.07;10.23;;;23.00;99.90;;;;;;4945798;28;20207;-80
2022/08/18 07:27:16;;;;;;;12.00;9.25;;;23.30;99.90;;;;;;4946588;28;20548;-76
2022/08/18 07:30:12;;;;;;;15.90;9.07;;;23.50;99.90;;;;;;4944243;28;20577;-76
2022/08/18 07:32:53;;;;;;;13.23;9.23;;;23.80;99.90;;;;;;4950435;28;20641;-78
2022/08/18 07:35:39;;;;;;;15.30;8.63;;;24.10;99.90;;;;;;4945079;28;20207;-77
2022/08/18 07:38:30;;;;;;;9.35;7.25;;;24.30;99.90;;;;;;4945911;28;20207;-77
2022/08/18 07:41:38;;;;;;;9.38;6.32;;;24.80;99.90;;;;;;4944121;28;20227;-76
2022/08/18 07:44:32;;;;;;;9.07;5.82;;;25.70;99.90;;;;;;4959077;28;20219;-77
2022/08/18 07:47:30;;;;;;;10.18;5.47;;;26.00;99.90;;;;;;4943844;28;20216;-79
2022/08/18 07:49:58;;;;;;;8.57;6.45;;;26.00;99.90;;;;;;4951665;28;20286;-77
2022/08/18 07:53:22;;;;;;;8.48;6.05;;;25.80;99.90;;;;;;4953295;28;20208;-79
2022/08/18 07:55:59;;;;;;;8.73;5.50;;;25.90;99.90;;;;;;4940718;28;20653;-78
2022/08/18 07:59:06;;;;;;;10.05;5.50;;;26.00;99.90;;;;;;4953489;28;20207;-77
2022/08/18 08:01:53;;;;;;;7.93;5.90;;;26.20;99.90;;;;;;4885238;29;20693;-79
2022/08/18 08:04:52;;;;;;;8.63;5.10;;;26.20;99.90;;;;;;4939974;28;20213;-80
2022/08/18 08:07:23;;;;;;;8.70;4.80;;;26.30;99.90;;;;;;4947730;28;20211;-79
2022/08/18 08:10:25;;;;;;;7.75;5.70;;;26.40;99.90;;;;;;4959477;28;20208;-78
2022/08/18 08:13:38;;;;;;;8.60;5.30;;;27.10;99.90;;;;;;4961914;28;20207;-78
2022/08/18 08:16:36;;;;;;;7.03;4.78;;;28.00;99.90;;;;;;4977620;28;20663;-78
2022/08/18 08:19:25;;;;;;;8.60;5.20;;;28.60;99.90;;;;;;4970041;28;20210;-77
2022/08/18 08:22:35;;;;;;;9.43;5.35;;;28.70;99.90;;;;;;4978445;28;20196;-77
2022/08/18 08:25:39;;;;;;;8.45;5.68;;;28.60;99.90;;;;;;4984637;28;20218;-78
2022/08/18 08:28:39;;;;;;;9.63;5.15;;;28.70;99.90;;;;;;4910344;28;20315;-79
2022/08/18 08:31:38;;;;;;;6.57;4.50;;;28.80;99.90;;;;;;4982941;28;20235;-80
2022/08/18 08:34:40;;;;;;;9.98;5.07;;;28.80;99.90;;;;;;4978111;28;20660;-79
2022/08/18 08:37:30;;;;;;;8.50;5.10;;;28.80;99.90;;;;;;4988421;28;20664;-77
2022/08/18 08:40:04;;;;;;;5.57;4.97;;;28.50;99.90;;;;;;4961749;28;20227;-79
2022/08/18 08:42:53;;;;;;;7.65;4.82;;;28.20;99.90;;;;;;4972892;28;20199;-79
2022/08/18 08:45:27;;;;;;;7.97;5.45;;;27.90;99.90;;;;;;4982763;28;20203;-80
2022/08/18 08:48:11;;;;;;;8.05;5.32;;;28.00;99.90;;;;;;4971880;28;20216;-78
2022/08/18 08:51:01;;;;;;;7.53;4.85;;;28.20;99.90;;;;;;4964589;28;20810;-79
2022/08/18 08:53:33;;;;;;;5.65;4.40;;;28.30;99.90;;;;;;4967348;28;20286;-78
2022/08/18 08:56:08;;;;;;;7.43;4.50;;;28.50;99.90;;;;;;4979743;28;20195;-78
2022/08/18 08:58:50;;;;;;;7.78;4.35;;;28.90;99.90;;;;;;4983390;28;20316;-78
2022/08/18 09:01:57;;;;;;;8.05;4.95;;;29.00;99.90;;;;;;4975181;28;20359;-79
2022/08/18 09:04:52;;;;;;;6.60;4.57;;;29.00;99.90;;;;;;4984322;28;20293;-79
2022/08/18 09:07:41;;;;;;;7.82;5.40;;;29.00;99.90;;;;;;4974623;28;20214;-79
2022/08/18 09:10:29;;;;;;;6.65;5.13;;;29.10;99.90;;;;;;4986615;28;20298;-80
2022/08/18 09:13:12;;;;;;;7.57;4.90;;;29.30;99.90;;;;;;4974858;28;20238;-79
2022/08/18 09:16:16;;;;;;;7.45;4.57;;;29.40;99.90;;;;;;4981193;28;20712;-80
2022/08/18 09:19:11;;;;;;;7.63;4.90;;;29.60;99.90;;;;;;4967404;28;20215;-79
2022/08/18 09:22:28;;;;;;;6.75;5.00;;;29.70;99.90;;;;;;4967551;28;20235;-79
2022/08/18 09:24:56;;;;;;;5.63;4.72;;;29.70;99.90;;;;;;4956397;28;20207;-76
2022/08/18 09:27:44;;;;;;;5.82;4.72;;;29.50;99.90;;;;;;4983064;28;20671;-79
2022/08/18 09:31:12;;;;;;;6.70;5.45;;;29.10;99.90;;;;;;4977670;28;20247;-78
2022/08/18 09:34:11;;;;;;;7.65;6.00;;;28.70;99.90;;;;;;4980817;28;20217;-77
2022/08/18 09:36:52;;;;;;;7.10;5.10;;;28.20;99.90;;;;;;4972408;28;20210;-77
2022/08/18 09:42:32;;;;;;;6.75;5.47;;;27.60;99.90;;;;;;4986602;28;20219;-77
2022/08/18 09:45:31;;;;;;;7.38;5.00;;;27.80;99.90;;;;;;4978176;28;20209;-77
2022/08/18 09:48:11;;;;;;;4.20;3.80;;;28.20;99.90;;;;;;4986259;28;20218;-78
2022/08/18 09:51:14;;;;;;;4.75;4.25;;;28.60;99.90;;;;;;4977098;28;20282;-77
2022/08/18 09:53:51;;;;;;;5.97;3.88;;;29.00;99.90;;;;;;4986049;28;20200;-80
2022/08/18 09:56:49;;;;;;;5.60;4.65;;;29.00;99.90;;;;;;4976036;28;20713;-80
2022/08/18 09:59:33;;;;;;;7.90;4.85;;;29.10;99.90;;;;;;4977029;28;20310;-80
2022/08/18 10:02:05;;;;;;;7.32;4.70;;;29.10;99.90;;;;;;4988671;28;20207;-79
2022/08/18 10:04:50;;;;;;;5.30;4.80;;;29.00;99.90;;;;;;4978976;28;20195;-79
2022/08/18 10:07:32;;;;;;;5.65;5.07;;;29.20;99.90;;;;;;4983062;28;20222;-80
2022/08/18 10:10:21;;;;;;;5.90;4.53;;;29.30;99.90;;;;;;4980159;28;20310;-80
2022/08/18 10:13:14;;;;;;;5.20;4.00;;;29.40;99.90;;;;;;4979832;28;20687;-79
2022/08/18 10:15:51;;;;;;;4.03;3.58;;;29.60;99.90;;;;;;4975420;28;20284;-80
2022/08/18 10:18:47;;;;;;;4.90;3.67;;;29.50;99.90;;;;;;4985788;28;20203;-80
2022/08/18 10:21:19;;;;;;;4.65;3.30;;;29.40;99.90;;;;;;4973864;28;20305;-80
2022/08/18 10:24:10;;;;;;;4.53;3.20;;;28.90;99.90;;;;;;4975042;28;20290;-80
2022/08/18 10:26:58;;;;;;;6.00;3.28;;;28.70;99.90;;;;;;4977284;28;20641;-80
2022/08/18 10:29:28;;;;;;;4.20;3.00;;;28.50;99.90;;;;;;4985021;28;20218;-79
2022/08/18 10:31:58;;;;;;;4.30;3.80;;;28.50;99.90;;;;;;4982219;28;20203;-80
2022/08/18 10:34:41;;;;;;;4.82;3.50;;;28.40;99.90;;;;;;4975807;28;20269;-79
2022/08/18 10:37:44;;;;;;;6.63;3.88;;;28.40;99.90;;;;;;4978218;28;20287;-79
2022/08/18 10:40:19;;;;;;;5.80;4.35;;;28.50;99.90;;;;;;4977912;28;20228;-80
2022/08/18 10:43:24;;;;;;;3.95;3.58;;;28.80;99.90;;;;;;4983561;28;20227;-80
2022/08/18 10:46:20;;;;;;;4.78;4.00;;;28.80;99.90;;;;;;4976279;28;20270;-80
2022/08/18 10:49:16;;;;;;;3.92;3.38;;;28.60;99.90;;;;;;4978629;28;20222;-80
2022/08/18 10:51:57;;;;;;;3.50;3.20;;;28.70;99.90;;;;;;4995366;28;20207;-81
2022/08/18 10:54:41;;;;;;;4.53;4.00;;;28.70;99.90;;;;;;4983836;28;20600;-78
2022/08/18 10:57:34;;;;;;;3.53;3.20;;;28.50;99.90;;;;;;4979935;28;20621;-79
2022/08/18 11:00:12;;;;;;;4.20;3.13;;;28.20;99.90;;;;;;4979633;28;20291;-80
2022/08/18 11:03:10;;;;;;;3.65;2.72;;;28.10;99.90;;;;;;4981108;28;20278;-79
2022/08/18 11:06:06;;;;;;;5.40;3.17;;;28.10;99.90;;;;;;4981891;28;20232;-81
2022/08/18 11:08:49;;;;;;;5.53;3.47;;;28.00;99.90;;;;;;4984619;28;20207;-79
2022/08/18 11:11:42;;;;;;;3.30;2.92;;;27.90;99.90;;;;;;4982203;28;20246;-79
2022/08/18 11:14:25;;;;;;;6.30;3.03;;;27.90;99.90;;;;;;4986118;28;20215;-80
2022/08/18 11:17:21;;;;;;;3.75;3.08;;;27.90;99.90;;;;;;4983389;28;20343;-81
2022/08/18 11:19:54;;;;;;;4.78;3.88;;;27.90;99.90;;;;;;4989125;28;20207;-78
2022/08/18 11:22:32;;;;;;;6.35;4.00;;;27.70;99.90;;;;;;4960927;28;20214;-80
2022/08/18 11:25:26;;;;;;;6.47;3.63;;;27.60;99.90;;;;;;4987936;28;20211;-80
2022/08/18 11:27:55;;;;;;;4.05;3.45;;;27.50;99.90;;;;;;4984262;28;20210;-79
2022/08/18 11:30:30;;;;;;;4.75;3.65;;;27.30;99.90;;;;;;4981626;28;20216;-81
2022/08/18 11:33:01;;;;;;;4.32;3.80;;;27.10;99.90;;;;;;4985729;28;20210;-81
2022/08/18 11:35:45;;;;;;;4.93;3.33;;;26.90;99.90;;;;;;4987881;28;20211;-80
2022/08/18 11:38:14;;;;;;;4.07;3.00;;;26.70;99.90;;;;;;4984596;28;20206;-81
2022/08/18 11:40:53;;;;;;;4.80;3.75;;;26.60;99.90;;;;;;4982139;28;20239;-80
2022/08/18 11:43:40;;;;;;;5.88;3.60;;;26.40;99.90;;;;;;4978080;28;20211;-80
2022/08/18 11:46:29;;;;;;;5.80;3.72;;;26.30;99.90;;;;;;4990260;28;20262;-80
2022/08/18 11:49:00;;;;;;;4.22;3.50;;;26.20;99.90;;;;;;4975209;28;20597;-81
2022/08/18 11:51:32;;;;;;;4.85;3.97;;;26.00;99.90;;;;;;4987675;28;20207;-79
2022/08/18 11:54:11;;;;;;;4.40;4.00;;;25.90;99.90;;;;;;4989591;28;20203;-80
2022/08/18 11:56:38;;;;;;;4.78;3.97;;;25.80;99.90;;;;;;4982321;28;20200;-81
2022/08/18 11:59:24;;;;;;;4.93;4.13;;;25.70;99.90;;;;;;4984654;28;20216;-78
2022/08/18 12:02:16;;;;;;;6.75;5.35;;;25.60;99.90;;;;;;4984553;28;20655;-79
2022/08/18 12:04:51;;;;;;;8.65;5.22;;;25.40;99.90;;;;;;4973255;28;20231;-78
2022/08/18 12:07:34;;;;;;;7.82;5.18;;;25.30;99.90;;;;;;4970900;28;20234;-79
2022/08/18 12:10:27;;;;;;;7.57;5.32;;;25.20;99.90;;;;;;4984401;28;20564;-80
2022/08/18 12:12:59;;;;;;;6.10;5.07;;;25.10;99.90;;;;;;4969235;28;20623;-79
2022/08/18 12:15:34;;;;;;;7.22;5.72;;;25.00;99.90;;;;;;4994070;28;20276;-78
2022/08/18 12:18:13;;;;;;;6.03;5.22;;;25.00;99.90;;;;;;4985223;28;20686;-80
2022/08/18 12:20:56;;;;;;;8.02;5.13;;;25.00;99.90;;;;;;4983486;28;20227;-80
2022/08/18 12:23:32;;;;;;;7.63;4.97;;;25.00;99.90;;;;;;4987090;28;20218;-81
2022/08/18 12:26:14;;;;;;;10.13;5.28;;;25.00;99.90;;;;;;4974570;28;20211;-79
2022/08/18 12:29:02;;;;;;;7.43;5.20;;;25.00;99.90;;;;;;4970030;28;20622;-79
2022/08/18 12:31:29;;;;;;;5.95;5.32;;;25.00;99.90;;;;;;4968174;28;20217;-79
2022/08/18 12:34:22;;;;;;;8.02;5.72;;;25.00;99.90;;;;;;4967986;28;20620;-80
2022/08/18 12:36:56;;;;;;;10.25;5.78;;;24.90;99.90;;;;;;4969271;28;20298;-80
2022/08/18 12:39:23;;;;;;;10.43;6.18;;;24.90;99.90;;;;;;4992169;28;20207;-80
2022/08/18 12:41:51;;;;;;;8.50;5.55;;;24.80;99.90;;;;;;4968465;28;20262;-79
2022/08/18 12:44:19;;;;;;;11.93;6.07;;;24.70;99.90;;;;;;4973758;28;20208;-80
2022/08/18 12:46:54;;;;;;;7.10;6.00;;;24.70;99.90;;;;;;4988680;28;20207;-79
2022/08/18 12:49:23;;;;;;;7.32;6.07;;;24.70;99.90;;;;;;4979609;28;20206;-82
2022/08/18 12:51:54;;;;;;;9.38;6.65;;;24.60;99.90;;;;;;4991448;28;20219;-81
2022/08/18 12:54:21;;;;;;;14.00;7.93;;;24.60;99.90;;;;;;4965488;28;20733;-81
2022/08/18 12:56:54;;;;;;;9.52;7.20;;;24.50;99.90;;;;;;4985764;28;20270;-80
2022/08/18 12:59:22;;;;;;;10.98;7.68;;;24.50;99.90;;;;;;4971240;28;20306;-79
2022/08/18 13:01:50;;;;;;;10.50;7.78;;;24.60;99.90;;;;;;4987255;28;20682;-79
2022/08/18 13:04:24;;;;;;;7.90;6.70;;;24.60;99.90;;;;;;4986657;28;20211;-79
2022/08/18 13:07:14;;;;;;;9.10;7.15;;;24.60;99.90;;;;;;4983411;28;20207;-79
2022/08/18 13:09:45;;;;;;;8.10;6.55;;;24.60;99.90;;;;;;4994068;28;20207;-80
2022/08/18 13:12:20;;;;;;;8.77;6.35;;;24.70;99.90;;;;;;4974919;28;20296;-80
2022/08/18 13:14:49;;;;;;;10.63;6.47;;;24.90;99.90;;;;;;4995285;28;20327;-77
2022/08/18 13:17:18;;;;;;;10.07;6.47;;;25.00;99.90;;;;;;4971234;28;20219;-79
2022/08/18 13:20:01;;;;;;;8.40;6.65;;;25.10;99.90;;;;;;4969727;28;20203;-79
2022/08/18 13:22:28;;;;;;;10.18;6.43;;;25.20;99.90;;;;;;4983920;28;20407;-80
2022/08/18 13:25:00;;;;;;;10.40;5.60;;;25.30;99.90;;;;;;4973078;28;20219;-79
2022/08/18 13:27:29;;;;;;;7.97;5.60;;;25.50;99.90;;;;;;4981284;28;20446;-80
2022/08/18 13:30:10;;;;;;;6.57;5.72;;;25.60;99.90;;;;;;4987452;28;20207;-81
2022/08/18 13:32:59;;;;;;;6.53;5.90;;;25.70;99.90;;;;;;4983152;28;20682;-79
2022/08/18 13:35:37;;;;;;;6.50;5.28;;;25.90;99.90;;;;;;4981231;28;20203;-78
2022/08/18 13:38:18;;;;;;;7.78;4.80;;;26.00;99.90;;;;;;4967576;28;20211;-78
2022/08/18 13:40:54;;;;;;;5.95;5.00;;;26.20;99.90;;;;;;4983400;28;20219;-79
2022/08/18 13:43:28;;;;;;;7.35;5.30;;;26.10;99.90;;;;;;4987167;28;20579;-80
2022/08/18 13:45:55;;;;;;;5.35;4.80;;;26.30;99.90;;;;;;4970227;28;20767;-82
2022/08/18 13:48:24;;;;;;;6.35;4.88;;;26.40;99.90;;;;;;4984889;28;20302;-80
2022/08/18 13:50:57;;;;;;;5.20;4.00;;;26.40;99.90;;;;;;4985848;28;20211;-82
2022/08/18 13:53:28;;;;;;;6.43;4.18;;;26.60;99.90;;;;;;4985114;28;20243;-81